Time;durP1;ratioP1;P1;durP2;ratioP2;P2;SDS_P1;SDS_P2;PMS_P1;PMS_P2;Temp;Humidity;BMP_temperature;BMP_pressure;BME280_temperature;BME280_humidity;BME280_pressure;Samples;Min_cycle;Max_cycle;Signal;HPM_P1;HPM_P2
2022/11/12 00:01:29;;;;;;;1.50;0.70;;;;;;;9.12;100.00;100783.50;5109964;28;20205;-62
2022/11/12 00:03:56;;;;;;;1.23;1.13;;;;;;;9.11;100.00;100784.41;5110112;28;20204;-62
2022/11/12 00:06:23;;;;;;;0.77;0.77;;;;;;;9.10;100.00;100792.94;5109961;28;20369;-60
2022/11/12 00:08:50;;;;;;;2.53;1.23;;;;;;;9.15;100.00;100785.94;5109930;28;20721;-63
2022/11/12 00:11:16;;;;;;;0.30;0.30;;;;;;;9.13;100.00;100786.88;5109862;28;20230;-59
2022/11/12 00:13:43;;;;;;;0.63;0.63;;;;;;;9.07;100.00;100772.66;5110254;28;20619;-63
2022/11/12 00:16:10;;;;;;;2.43;1.40;;;;;;;9.06;100.00;100771.00;5109969;28;20254;-63
2022/11/12 00:18:38;;;;;;;0.87;0.87;;;;;;;9.19;100.00;100771.34;5112382;28;20222;-62
2022/11/12 00:21:05;;;;;;;0.73;0.73;;;;;;;9.17;100.00;100765.50;5113956;28;20197;-59
2022/11/12 00:23:32;;;;;;;0.50;0.50;;;;;;;9.18;100.00;100770.50;5113703;28;20290;-58
2022/11/12 00:25:59;;;;;;;0.50;0.50;;;;;;;9.17;100.00;100768.88;5113794;28;20638;-63
2022/11/12 00:28:27;;;;;;;0.73;0.70;;;;;;;9.20;100.00;100758.53;5113893;28;20284;-58
2022/11/12 00:30:53;;;;;;;1.23;1.13;;;;;;;9.25;100.00;100761.75;5113559;27;20212;-63
2022/11/12 00:33:20;;;;;;;0.67;0.40;;;;;;;9.22;100.00;100773.78;5113448;28;20227;-58
2022/11/12 00:35:48;;;;;;;1.10;1.00;;;;;;;9.25;100.00;100764.28;5113679;28;20217;-58
2022/11/12 00:38:15;;;;;;;0.50;0.50;;;;;;;9.14;100.00;100769.00;5113496;28;20228;-63
2022/11/12 00:40:42;;;;;;;1.37;1.20;;;;;;;8.98;100.00;100767.91;5113418;28;20217;-63
2022/11/12 00:43:08;;;;;;;0.43;0.40;;;;;;;8.82;100.00;100765.97;5113243;28;20237;-58
2022/11/12 00:45:35;;;;;;;0.40;0.40;;;;;;;8.78;100.00;100766.94;5113577;28;20224;-58
2022/11/12 00:48:02;;;;;;;1.03;0.73;;;;;;;8.77;100.00;100760.19;5113474;28;20270;-58
2022/11/12 00:50:29;;;;;;;0.60;0.60;;;;;;;8.80;100.00;100764.34;5113143;28;20713;-63
2022/11/12 00:52:57;;;;;;;0.80;0.80;;;;;;;8.81;100.00;100761.75;5113398;28;20205;-62
2022/11/12 00:55:23;;;;;;;0.40;0.40;;;;;;;8.80;100.00;100760.06;5113383;28;20770;-58
2022/11/12 00:57:50;;;;;;;0.60;0.60;;;;;;;8.70;100.00;100758.78;5113085;28;20197;-58
2022/11/12 01:00:19;;;;;;;0.27;0.27;;;;;;;8.72;100.00;100762.06;5113022;28;20283;-58
2022/11/12 01:02:46;;;;;;;1.17;1.07;;;;;;;8.72;100.00;100756.16;5113009;28;20286;-62
2022/11/12 01:05:13;;;;;;;0.97;0.93;;;;;;;8.72;100.00;100756.97;5113279;28;20221;-58
2022/11/12 01:07:40;;;;;;;0.40;0.40;;;;;;;8.68;100.00;100750.34;5113056;28;20201;-63
2022/11/12 01:10:09;;;;;;;0.70;0.70;;;;;;;8.72;100.00;100751.88;5112825;27;20296;-62
2022/11/12 01:12:36;;;;;;;0.80;0.80;;;;;;;8.69;100.00;100741.78;5112809;28;20250;-63
2022/11/12 01:15:03;;;;;;;1.00;1.00;;;;;;;8.66;100.00;100741.91;5112932;28;20217;-63
2022/11/12 01:17:30;;;;;;;0.53;0.53;;;;;;;8.72;100.00;100736.56;5112761;28;20212;-63
2022/11/12 01:19:57;;;;;;;0.47;0.47;;;;;;;8.72;100.00;100736.56;5112665;28;20217;-62
2022/11/12 01:22:24;;;;;;;0.20;0.20;;;;;;;8.78;100.00;100736.34;5112934;28;20224;-62
2022/11/12 01:24:51;;;;;;;0.97;0.97;;;;;;;8.82;100.00;100735.34;5112800;28;20220;-58
2022/11/12 01:27:19;;;;;;;0.57;0.57;;;;;;;8.93;100.00;100741.75;5112463;28;20266;-62
2022/11/12 01:29:45;;;;;;;0.90;0.90;;;;;;;8.88;100.00;100731.72;5112459;28;20290;-63
2022/11/12 01:32:12;;;;;;;0.67;0.53;;;;;;;8.88;100.00;100746.22;5112315;28;20742;-58
2022/11/12 01:34:39;;;;;;;0.60;0.60;;;;;;;8.84;100.00;100743.78;5112839;28;20220;-62
2022/11/12 01:37:06;;;;;;;0.83;0.80;;;;;;;8.92;100.00;100747.75;5112177;28;20201;-58
2022/11/12 01:39:32;;;;;;;1.47;1.07;;;;;;;8.95;100.00;100747.63;5112498;28;20217;-63
2022/11/12 01:41:59;;;;;;;0.20;0.20;;;;;;;8.98;100.00;100750.88;5112129;28;20225;-63
2022/11/12 01:44:31;;;;;;;1.80;0.63;;;;;;;8.99;100.00;100759.38;5112515;27;20649;-59
2022/11/12 01:47:03;;;;;;;0.43;0.43;;;;;;;9.00;100.00;100746.56;5112222;27;20231;-63
2022/11/12 01:49:33;;;;;;;0.87;0.87;;;;;;;8.95;100.00;100742.53;5112159;28;20225;-58
2022/11/12 01:52:08;;;;;;;0.57;0.57;;;;;;;8.92;100.00;100740.09;5112206;28;20193;-63
2022/11/12 01:54:36;;;;;;;0.83;0.80;;;;;;;9.10;100.00;100746.19;5112026;28;20251;-58
2022/11/12 01:57:03;;;;;;;0.47;0.47;;;;;;;9.05;100.00;100747.22;5112109;28;20197;-58
2022/11/12 01:59:38;;;;;;;0.30;0.30;;;;;;;9.04;100.00;100742.16;5111928;28;20217;-63
2022/11/12 02:02:05;;;;;;;0.43;0.43;;;;;;;9.03;100.00;100745.59;5111717;28;20320;-63
2022/11/12 02:04:33;;;;;;;0.40;0.40;;;;;;;9.13;100.00;100741.78;5111903;28;20228;-62
2022/11/12 02:07:02;;;;;;;1.27;1.17;;;;;;;9.22;100.00;100746.56;5111587;28;20188;-58
2022/11/12 02:09:29;;;;;;;0.43;0.43;;;;;;;9.25;100.00;100746.44;5111557;28;20709;-63
2022/11/12 02:11:56;;;;;;;0.97;0.67;;;;;;;9.26;100.00;100747.25;5111541;28;20197;-62
2022/11/12 02:14:22;;;;;;;2.00;1.07;;;;;;;9.15;100.00;100739.19;5111660;28;20605;-62
2022/11/12 02:16:50;;;;;;;0.93;0.67;;;;;;;9.03;100.00;100740.50;5111356;28;20209;-63
2022/11/12 02:19:17;;;;;;;1.40;1.00;;;;;;;9.03;100.00;100735.41;5111603;28;20606;-58
2022/11/12 02:21:46;;;;;;;1.03;0.93;;;;;;;8.89;100.00;100733.38;5111526;28;20216;-60
2022/11/12 02:24:34;;;;;;;2.00;0.70;;;;;;;8.79;100.00;100732.91;5111215;28;20263;-58
2022/11/12 02:27:01;;;;;;;0.70;0.70;;;;;;;8.84;100.00;100730.16;5111146;28;20201;-58
2022/11/12 02:29:28;;;;;;;0.50;0.50;;;;;;;8.87;100.00;100729.22;5111356;28;20221;-63
2022/11/12 02:31:55;;;;;;;0.50;0.50;;;;;;;8.81;100.00;100726.03;5111064;28;20201;-63
2022/11/12 02:34:21;;;;;;;2.47;1.20;;;;;;;8.77;100.00;100729.59;5111225;28;20773;-63
2022/11/12 02:36:50;;;;;;;0.50;0.50;;;;;;;8.71;100.00;100722.19;5110869;28;20665;-58
2022/11/12 02:39:17;;;;;;;0.50;0.50;;;;;;;8.79;100.00;100722.72;5110795;28;20732;-63
2022/11/12 02:41:44;;;;;;;0.60;0.60;;;;;;;8.78;100.00;100723.59;5110574;28;20246;-58
2022/11/12 02:44:11;;;;;;;0.53;0.30;;;;;;;8.75;100.00;100723.72;5110874;28;20717;-58
2022/11/12 02:46:38;;;;;;;0.70;0.70;;;;;;;8.72;100.00;100717.91;5110892;28;20197;-58
2022/11/12 02:49:04;;;;;;;1.30;1.20;;;;;;;8.68;100.00;100724.84;5110803;28;20225;-58
2022/11/12 02:51:31;;;;;;;0.60;0.60;;;;;;;8.63;100.00;100721.63;5110703;28;20197;-63
2022/11/12 02:53:59;;;;;;;0.30;0.30;;;;;;;8.56;100.00;100725.31;5110691;28;20290;-59
2022/11/12 02:56:26;;;;;;;0.40;0.40;;;;;;;8.54;100.00;100727.09;5110690;27;20201;-58
2022/11/12 02:58:53;;;;;;;0.70;0.70;;;;;;;8.58;100.00;100723.50;5110630;28;20204;-58
2022/11/12 03:01:20;;;;;;;0.87;0.83;;;;;;;8.53;100.00;100725.44;5110537;28;20201;-62
2022/11/12 03:03:47;;;;;;;0.37;0.37;;;;;;;8.51;100.00;100732.28;5110425;28;20229;-63
2022/11/12 03:06:13;;;;;;;0.33;0.33;;;;;;;8.60;100.00;100737.88;5110517;28;20208;-58
2022/11/12 03:08:40;;;;;;;0.70;0.70;;;;;;;8.59;100.00;100730.28;5110455;28;20197;-58
2022/11/12 03:11:11;;;;;;;1.10;0.70;;;;;;;8.60;100.00;100731.94;5110264;28;20409;-63
2022/11/12 03:13:38;;;;;;;1.47;1.37;;;;;;;8.63;100.00;100731.81;5110402;28;20209;-62
2022/11/12 03:16:05;;;;;;;0.87;0.87;;;;;;;8.65;100.00;100735.16;5110295;28;20726;-58
2022/11/12 03:18:33;;;;;;;1.33;1.07;;;;;;;8.73;100.00;100733.16;5110423;28;20197;-63
2022/11/12 03:20:59;;;;;;;0.80;0.67;;;;;;;8.67;100.00;100730.84;5110192;28;20744;-59
2022/11/12 03:23:27;;;;;;;0.87;0.80;;;;;;;8.69;100.00;100730.78;5110242;28;20236;-59
2022/11/12 03:25:54;;;;;;;0.67;0.67;;;;;;;8.54;100.00;100732.19;5110291;28;20225;-58
2022/11/12 03:28:22;;;;;;;0.77;0.70;;;;;;;8.60;100.00;100732.78;5110070;28;20193;-58
2022/11/12 03:30:49;;;;;;;0.67;0.67;;;;;;;8.56;100.00;100730.41;5110086;28;20688;-63
2022/11/12 03:33:16;;;;;;;1.33;1.23;;;;;;;8.52;100.00;100728.84;5109870;28;20250;-58
2022/11/12 03:35:43;;;;;;;0.77;0.77;;;;;;;8.50;100.00;100730.66;5109978;28;20213;-58
2022/11/12 03:38:10;;;;;;;0.50;0.50;;;;;;;8.52;100.00;100729.69;5110025;28;20204;-58
2022/11/12 03:40:37;;;;;;;0.63;0.63;;;;;;;8.50;100.00;100730.66;5110307;28;20217;-58
2022/11/12 03:43:03;;;;;;;1.37;0.70;;;;;;;8.46;100.00;100736.72;5109720;28;20233;-63
2022/11/12 03:45:32;;;;;;;0.97;0.67;;;;;;;8.45;100.00;100728.25;5109908;28;20760;-58
2022/11/12 03:47:59;;;;;;;0.57;0.37;;;;;;;8.42;100.00;100730.91;5109781;28;20200;-58
2022/11/12 03:50:27;;;;;;;0.47;0.30;;;;;;;8.36;100.00;100724.28;5109880;28;20216;-58
2022/11/12 03:52:55;;;;;;;1.40;1.30;;;;;;;8.35;100.00;100737.94;5111030;28;20201;-58
2022/11/12 03:55:24;;;;;;;0.87;0.73;;;;;;;8.22;100.00;100736.72;5114170;28;20231;-58
2022/11/12 03:57:52;;;;;;;0.30;0.30;;;;;;;8.24;100.00;100734.13;5114406;28;20200;-58
2022/11/12 04:00:20;;;;;;;0.67;0.67;;;;;;;8.19;100.00;100736.81;5114097;28;20220;-58
2022/11/12 04:02:49;;;;;;;0.80;0.80;;;;;;;8.15;100.00;100740.38;5113992;28;20228;-58
2022/11/12 04:10:47;;;;;;;0.63;0.60;;;;;;;8.07;100.00;100737.25;5113945;28;20220;-58
2022/11/12 04:13:29;;;;;;;0.50;0.50;;;;;;;8.13;100.00;100747.22;5113994;28;20197;-62
2022/11/12 04:21:50;;;;;;;0.50;0.50;;;;;;;8.26;100.00;100738.28;5113823;28;20331;-58
2022/11/12 04:27:02;;;;;;;0.60;0.60;;;;;;;8.26;100.00;100733.19;5113550;28;20200;-58
2022/11/12 04:32:13;;;;;;;0.40;0.40;;;;;;;8.28;100.00;100739.03;5113512;28;20650;-62
2022/11/12 04:34:41;;;;;;;1.03;0.63;;;;;;;8.37;100.00;100741.25;5113407;28;20233;-58
2022/11/12 04:37:08;;;;;;;0.93;0.87;;;;;;;8.42;100.00;100737.75;5113413;28;20204;-58
2022/11/12 04:39:35;;;;;;;0.40;0.40;;;;;;;8.47;100.00;100746.06;5113405;28;20213;-63
2022/11/12 04:45:02;;;;;;;0.30;0.30;;;;;;;8.39;100.00;100739.50;5113507;28;20239;-58
2022/11/12 04:47:35;;;;;;;1.20;0.70;;;;;;;8.35;100.00;100747.31;5113052;28;20195;-62
2022/11/12 04:50:06;;;;;;;1.00;0.97;;;;;;;8.27;100.00;100745.03;5113558;28;20237;-58
2022/11/12 04:52:33;;;;;;;0.53;0.53;;;;;;;8.24;100.00;100745.13;5113173;28;20200;-63
2022/11/12 04:55:00;;;;;;;0.77;0.77;;;;;;;8.28;100.00;100751.78;5113275;28;20221;-58
2022/11/12 04:57:27;;;;;;;0.97;0.90;;;;;;;8.37;100.00;100748.88;5113129;28;20220;-63
2022/11/12 04:59:54;;;;;;;0.63;0.50;;;;;;;8.41;100.00;100746.25;5112879;27;20226;-62
2022/11/12 05:02:20;;;;;;;0.60;0.50;;;;;;;8.35;100.00;100752.41;5113132;28;20685;-58
2022/11/12 05:04:47;;;;;;;1.33;1.23;;;;;;;8.32;100.00;100755.03;5112342;28;20888;-62
2022/11/12 05:07:16;;;;;;;0.77;0.77;;;;;;;8.28;100.00;100758.59;5112836;28;20204;-58
2022/11/12 05:09:43;;;;;;;0.97;0.90;;;;;;;8.22;100.00;100764.72;5112715;28;20244;-63
2022/11/12 05:12:10;;;;;;;1.50;1.37;;;;;;;8.23;100.00;100770.66;5113143;28;20207;-58
2022/11/12 05:14:37;;;;;;;1.87;1.20;;;;;;;8.21;100.00;100775.00;5112735;28;20270;-58
2022/11/12 05:17:04;;;;;;;1.60;1.47;;;;;;;8.24;100.00;100768.06;5112510;28;20198;-58
2022/11/12 05:19:31;;;;;;;1.63;1.53;;;;;;;8.25;100.00;100767.16;5112580;28;20221;-62
2022/11/12 05:22:07;;;;;;;1.37;1.27;;;;;;;8.25;100.00;100777.34;5112545;28;20205;-59
2022/11/12 05:24:37;;;;;;;2.27;2.07;;;;;;;8.22;100.00;100782.56;5112719;28;20724;-58
2022/11/12 05:27:07;;;;;;;1.10;1.00;;;;;;;8.19;100.00;100781.84;5112455;28;20560;-58
2022/11/12 05:29:33;;;;;;;1.70;1.23;;;;;;;8.14;100.00;100774.34;5112328;28;20785;-58
2022/11/12 05:32:00;;;;;;;1.97;0.93;;;;;;;8.06;100.00;100777.19;5112548;28;20653;-63
2022/11/12 05:34:27;;;;;;;1.90;1.70;;;;;;;8.05;100.00;100774.69;5112421;28;20217;-63
2022/11/12 05:36:54;;;;;;;0.83;0.83;;;;;;;8.02;100.00;100769.69;5112370;28;20201;-58
2022/11/12 05:39:21;;;;;;;0.90;0.90;;;;;;;7.97;100.00;100772.41;5112003;28;20217;-62
2022/11/12 05:41:49;;;;;;;1.50;1.40;;;;;;;8.09;100.00;100783.91;5112488;28;20220;-62
2022/11/12 05:44:16;;;;;;;1.50;0.80;;;;;;;8.15;100.00;100789.59;5111822;27;20237;-58
2022/11/12 05:46:43;;;;;;;0.83;0.70;;;;;;;8.19;100.00;100786.94;5112147;28;20198;-62
2022/11/12 05:49:10;;;;;;;1.10;0.93;;;;;;;8.29;100.00;100789.13;5111787;28;20213;-58
2022/11/12 05:51:37;;;;;;;0.87;0.70;;;;;;;8.32;100.00;100796.66;5111942;28;20208;-62
2022/11/12 05:54:04;;;;;;;1.43;0.80;;;;;;;8.38;100.00;100799.03;5111919;28;20384;-58
2022/11/12 05:56:31;;;;;;;0.53;0.53;;;;;;;8.42;100.00;100798.91;5111811;28;20201;-63
2022/11/12 05:59:00;;;;;;;1.40;1.30;;;;;;;8.50;100.00;100804.56;5111673;28;20658;-63
2022/11/12 06:01:27;;;;;;;1.57;1.37;;;;;;;8.51;100.00;100803.66;5111823;27;20201;-62
2022/11/12 06:03:54;;;;;;;1.10;1.00;;;;;;;8.56;100.00;100812.00;5111604;28;20769;-62
2022/11/12 06:06:20;;;;;;;1.47;1.03;;;;;;;8.58;100.00;100815.28;5111824;28;20213;-62
2022/11/12 06:08:47;;;;;;;1.50;1.40;;;;;;;8.61;100.00;100807.56;5111821;28;20631;-62
2022/11/12 06:11:14;;;;;;;2.43;1.43;;;;;;;8.63;100.00;100813.41;5111865;28;20197;-58
2022/11/12 06:13:41;;;;;;;0.90;0.90;;;;;;;8.69;100.00;100813.19;5111460;28;20269;-62
2022/11/12 06:16:10;;;;;;;0.87;0.87;;;;;;;8.71;100.00;100816.53;5110542;28;20198;-63
2022/11/12 06:18:36;;;;;;;1.27;1.17;;;;;;;8.75;100.00;100824.88;5111375;28;20683;-58
2022/11/12 06:21:21;;;;;;;1.27;1.17;;;;;;;8.84;100.00;100817.75;5111237;28;20812;-58
2022/11/12 06:23:53;;;;;;;0.57;0.57;;;;;;;8.94;100.00;100812.28;5111079;28;20268;-62
2022/11/12 06:26:21;;;;;;;2.03;1.20;;;;;;;9.06;100.00;100822.03;5111272;28;20198;-58
2022/11/12 06:28:48;;;;;;;1.67;0.83;;;;;;;9.20;100.00;100817.22;5111011;28;20224;-63
2022/11/12 06:31:18;;;;;;;1.63;1.50;;;;;;;9.26;100.00;100819.53;5111254;28;20212;-63
2022/11/12 06:33:45;;;;;;;1.40;1.07;;;;;;;9.32;100.00;100827.84;5111135;28;20197;-58
2022/11/12 06:36:13;;;;;;;1.00;0.93;;;;;;;9.37;100.00;100825.97;5111157;28;20700;-58
2022/11/12 06:38:40;;;;;;;1.10;1.00;;;;;;;9.35;100.00;100827.72;5110916;28;20654;-58
2022/11/12 06:41:09;;;;;;;1.00;1.00;;;;;;;9.44;100.00;100832.47;5111163;28;20560;-63
2022/11/12 06:43:37;;;;;;;1.17;0.97;;;;;;;9.55;100.00;100830.31;5110899;28;20511;-63
2022/11/12 06:46:06;;;;;;;0.70;0.70;;;;;;;9.58;100.00;100830.19;5110864;28;20315;-62
2022/11/12 06:48:34;;;;;;;3.10;1.10;;;;;;;9.58;100.00;100837.03;5110744;28;20684;-63
2022/11/12 06:51:07;;;;;;;1.33;1.23;;;;;;;9.62;100.00;100841.94;5110753;28;20645;-63
2022/11/12 06:53:34;;;;;;;3.07;1.67;;;;;;;9.63;100.00;100838.53;5110629;28;20197;-63
2022/11/12 06:56:05;;;;;;;2.70;1.13;;;;;;;9.70;100.00;100828.88;5110860;28;20217;-59
2022/11/12 06:58:32;;;;;;;1.90;1.50;;;;;;;9.79;100.00;100823.38;5110614;28;20235;-62
2022/11/12 07:01:09;;;;;;;1.30;1.20;;;;;;;9.89;100.00;100818.72;5110728;28;20214;-58
2022/11/12 07:03:37;;;;;;;1.93;1.77;;;;;;;10.09;100.00;100828.94;5110628;28;21321;-58
2022/11/12 07:06:06;;;;;;;0.90;0.90;;;;;;;10.27;100.00;100834.19;5110687;28;20643;-63
2022/11/12 07:08:33;;;;;;;3.40;1.63;;;;;;;10.42;100.00;100838.66;5110466;28;20204;-58
2022/11/12 07:11:00;;;;;;;2.97;2.67;;;;;;;10.54;100.00;100845.78;5110612;28;20217;-58
2022/11/12 07:13:29;;;;;;;4.33;1.43;;;;;;;10.59;100.00;100845.59;5110468;28;20193;-62
2022/11/12 07:15:57;;;;;;;1.60;1.50;;;;;;;10.63;100.00;100849.69;5110575;28;20708;-59
2022/11/12 07:18:24;;;;;;;1.63;1.13;;;;;;;10.73;100.00;100847.53;5110294;28;20276;-58
2022/11/12 07:20:57;;;;;;;1.37;1.27;;;;;;;10.73;100.00;100850.91;5110751;28;20797;-63
2022/11/12 07:23:23;;;;;;;2.00;1.80;;;;;;;10.66;100.00;100846.97;5110300;28;20190;-58
2022/11/12 07:25:56;;;;;;;1.07;0.97;;;;;;;10.64;100.00;100859.81;5110247;28;20228;-58
2022/11/12 07:28:23;;;;;;;1.93;1.10;;;;;;;10.54;100.00;100850.91;5110138;28;20284;-62
2022/11/12 07:30:55;;;;;;;1.33;0.93;;;;;;;10.57;100.00;100853.31;5110161;28;20298;-58
2022/11/12 07:33:22;;;;;;;1.63;1.53;;;;;;;10.51;100.00;100850.22;5110270;28;20204;-58
2022/11/12 07:35:48;;;;;;;2.00;1.73;;;;;;;10.51;100.00;100850.22;5110375;28;20732;-58
2022/11/12 07:38:16;;;;;;;2.40;1.73;;;;;;;10.45;100.00;100851.31;5110441;28;20592;-59
2022/11/12 07:40:43;;;;;;;3.37;1.67;;;;;;;10.51;100.00;100853.59;5110136;28;20217;-63
2022/11/12 07:43:10;;;;;;;4.70;2.27;;;;;;;10.49;100.00;100849.44;5109995;28;20246;-62
2022/11/12 07:45:37;;;;;;;2.33;1.53;;;;;;;10.36;100.00;100854.28;5110054;28;20225;-62
2022/11/12 07:48:04;;;;;;;1.97;1.60;;;;;;;10.58;100.00;100849.88;5110378;28;20382;-62
2022/11/12 07:50:31;;;;;;;1.83;1.40;;;;;;;10.65;100.00;100845.31;5110642;28;20220;-62
2022/11/12 07:52:58;;;;;;;3.03;1.40;;;;;;;10.55;100.00;100855.13;5111013;28;20201;-63
2022/11/12 07:55:27;;;;;;;2.10;1.03;;;;;;;10.77;100.00;100859.31;5110532;28;20225;-58
2022/11/12 07:57:53;;;;;;;3.77;1.90;;;;;;;10.93;100.00;100855.13;5110587;28;20230;-57
2022/11/12 08:00:20;;;;;;;1.20;1.10;;;;;;;11.01;100.00;100860.75;5109981;28;20213;-62
2022/11/12 08:02:47;;;;;;;2.00;1.80;;;;;;;11.07;100.00;100857.91;5109955;28;20201;-58
2022/11/12 08:05:14;;;;;;;2.50;1.37;;;;;;;11.15;100.00;100864.41;5110215;28;20248;-59
2022/11/12 08:07:40;;;;;;;1.87;1.40;;;;;;;11.08;100.00;100867.25;5110067;28;20585;-58
2022/11/12 08:10:09;;;;;;;2.97;1.63;;;;;;;10.93;99.96;100869.66;5110313;28;20221;-58
2022/11/12 08:12:37;;;;;;;1.77;0.97;;;;;;;11.06;99.94;100861.38;5110112;28;20197;-62
2022/11/12 08:15:04;;;;;;;1.83;1.33;;;;;;;11.23;100.00;100857.22;5110257;28;20225;-59
2022/11/12 08:17:31;;;;;;;1.63;1.20;;;;;;;11.53;100.00;100866.00;5110211;28;20209;-59
2022/11/12 08:19:58;;;;;;;2.93;2.33;;;;;;;11.48;99.44;100867.94;5110199;28;20707;-59
2022/11/12 08:22:25;;;;;;;1.07;0.87;;;;;;;11.61;98.99;100875.88;5109939;28;20718;-59
2022/11/12 08:24:51;;;;;;;1.13;1.07;;;;;;;11.84;97.18;100877.34;5109439;28;20249;-59
2022/11/12 08:27:18;;;;;;;1.67;1.47;;;;;;;11.85;96.15;100881.59;5109618;28;20202;-62
2022/11/12 08:29:46;;;;;;;2.07;1.87;;;;;;;11.91;96.82;100883.84;5109767;28;20742;-59
2022/11/12 08:32:14;;;;;;;1.77;1.30;;;;;;;11.77;96.91;100889.59;5109655;28;20201;-59
2022/11/12 08:34:42;;;;;;;2.50;1.57;;;;;;;11.91;96.66;100888.97;5109980;28;20225;-62
2022/11/12 08:37:09;;;;;;;1.87;1.23;;;;;;;11.86;97.42;100882.41;5109764;28;20202;-59
2022/11/12 08:39:36;;;;;;;4.67;2.37;;;;;;;11.83;97.19;100885.09;5111893;28;20225;-62
2022/11/12 08:42:03;;;;;;;1.47;1.37;;;;;;;11.83;96.85;100892.78;5113384;28;20201;-59
2022/11/12 08:44:30;;;;;;;1.30;1.20;;;;;;;11.92;96.00;100892.34;5113342;28;20232;-59
2022/11/12 08:46:58;;;;;;;2.37;1.80;;;;;;;11.90;96.24;100900.13;5113397;28;20201;-62
2022/11/12 08:49:25;;;;;;;3.07;2.30;;;;;;;11.91;95.26;100901.78;5113373;28;20221;-62
2022/11/12 08:51:52;;;;;;;2.63;1.63;;;;;;;11.97;96.61;100903.22;5113384;28;20201;-59
2022/11/12 08:54:18;;;;;;;2.00;1.53;;;;;;;11.95;95.19;100907.59;5113370;28;20274;-59
2022/11/12 08:56:45;;;;;;;2.67;1.27;;;;;;;12.02;95.52;100908.13;5113310;28;20189;-62
2022/11/12 08:59:12;;;;;;;2.03;1.83;;;;;;;12.11;96.33;100907.69;5113019;28;20709;-62
2022/11/12 09:01:39;;;;;;;2.47;1.90;;;;;;;12.13;95.39;100903.28;5113254;28;20623;-59
2022/11/12 09:04:07;;;;;;;3.13;1.73;;;;;;;12.19;95.12;100901.25;5112977;28;20262;-62
2022/11/12 09:06:34;;;;;;;2.17;1.73;;;;;;;12.11;94.02;100898.25;5113064;28;20201;-62
2022/11/12 09:09:00;;;;;;;1.70;1.47;;;;;;;12.17;92.95;100902.25;5112865;28;20758;-59
2022/11/12 09:11:27;;;;;;;1.30;1.10;;;;;;;12.25;90.71;100902.69;5113213;28;20575;-63
2022/11/12 09:13:54;;;;;;;1.17;1.03;;;;;;;12.33;91.87;100898.00;5112766;27;20197;-62
2022/11/12 09:16:23;;;;;;;1.43;1.33;;;;;;;12.41;92.88;100901.00;5112918;28;20197;-63
2022/11/12 09:18:49;;;;;;;3.93;1.60;;;;;;;12.43;91.05;100901.75;5112528;28;20259;-59
2022/11/12 09:21:20;;;;;;;1.77;1.40;;;;;;;12.37;90.95;100899.50;5113092;28;20193;-62
2022/11/12 09:23:47;;;;;;;1.70;1.60;;;;;;;12.45;91.01;100894.81;5112451;28;20197;-58
2022/11/12 09:26:14;;;;;;;2.97;1.63;;;;;;;12.37;90.28;100902.06;5112917;28;20228;-59
2022/11/12 09:28:41;;;;;;;1.73;0.93;;;;;;;12.34;91.43;100904.78;5112686;28;20208;-59
2022/11/12 09:31:08;;;;;;;2.73;1.70;;;;;;;12.29;91.83;100905.94;5113009;28;20198;-59
2022/11/12 09:33:35;;;;;;;1.83;1.30;;;;;;;12.27;91.93;100898.31;5112432;28;20201;-59
2022/11/12 09:36:04;;;;;;;1.13;1.00;;;;;;;12.06;91.03;100907.06;5112308;27;20217;-59
2022/11/12 09:38:33;;;;;;;3.73;2.30;;;;;;;11.92;90.03;100907.75;5112544;28;20208;-62
2022/11/12 09:41:20;;;;;;;2.53;1.90;;;;;;;12.13;92.24;100910.97;5112359;28;20224;-59
2022/11/12 09:43:50;;;;;;;2.50;2.07;;;;;;;12.11;91.60;100912.81;5101548;27;20197;-59
2022/11/12 09:46:28;;;;;;;1.70;1.27;;;;;;;12.23;92.29;100913.03;5112380;28;20205;-62
2022/11/12 09:49:02;;;;;;;2.93;1.67;;;;;;;12.18;91.95;100919.28;5112179;28;20254;-59
2022/11/12 09:51:33;;;;;;;1.93;1.47;;;;;;;12.32;91.86;100918.59;5112210;28;20197;-62
2022/11/12 09:54:06;;;;;;;1.93;1.80;;;;;;;12.06;90.58;100913.03;5111787;28;20268;-59
2022/11/12 09:56:33;;;;;;;1.53;1.43;;;;;;;12.20;92.01;100912.34;5112012;28;20194;-62
2022/11/12 09:59:00;;;;;;;1.30;1.20;;;;;;;12.32;91.00;100906.59;5112324;28;20673;-59
2022/11/12 10:01:42;;;;;;;1.77;1.50;;;;;;;12.41;91.56;100906.13;5112031;28;20193;-59
2022/11/12 10:04:27;;;;;;;1.83;1.30;;;;;;;12.24;91.02;100898.47;5111896;28;20216;-62
2022/11/12 10:07:01;;;;;;;2.03;1.23;;;;;;;12.52;92.64;100897.91;5111792;28;20224;-59
2022/11/12 10:09:37;;;;;;;1.37;1.07;;;;;;;12.60;91.31;100897.50;5111703;28;20220;-61
2022/11/12 10:12:31;;;;;;;1.87;1.53;;;;;;;12.71;89.55;100892.63;5111638;28;20204;-58
2022/11/12 10:18:05;;;;;;;2.07;1.90;;;;;;;12.70;89.70;100885.84;5111652;28;20196;-58
2022/11/12 10:20:39;;;;;;;3.67;2.33;;;;;;;12.67;89.55;100880.88;5111405;28;20274;-59
2022/11/12 10:23:16;;;;;;;2.20;1.30;;;;;;;12.61;88.00;100881.19;5111558;27;20212;-62
2022/11/12 10:25:47;;;;;;;3.23;2.03;;;;;;;12.62;90.07;100880.28;5111365;28;20237;-62
2022/11/12 10:28:24;;;;;;;1.97;1.83;;;;;;;12.69;89.73;100879.06;5111715;28;20701;-62
2022/11/12 10:30:52;;;;;;;2.10;1.87;;;;;;;12.80;90.17;100876.78;5111438;28;20221;-62
2022/11/12 10:33:19;;;;;;;1.93;1.73;;;;;;;12.79;89.10;100869.97;5111207;28;20673;-62
2022/11/12 10:35:46;;;;;;;1.73;1.43;;;;;;;12.87;88.24;100883.22;5111096;28;20217;-62
2022/11/12 10:38:18;;;;;;;2.93;2.10;;;;;;;12.93;88.47;100876.94;5111274;28;20224;-59
2022/11/12 10:40:46;;;;;;;2.27;1.70;;;;;;;12.98;89.23;100874.13;5111206;28;20221;-58
2022/11/12 10:43:24;;;;;;;2.80;1.70;;;;;;;13.19;90.20;100862.69;5111151;28;20194;-62
2022/11/12 10:45:51;;;;;;;1.53;1.23;;;;;;;13.23;87.62;100861.59;5111039;28;20619;-59
2022/11/12 10:48:24;;;;;;;1.37;1.27;;;;;;;13.39;87.83;100860.81;5111031;28;20198;-59
2022/11/12 10:50:51;;;;;;;3.70;2.37;;;;;;;13.59;85.08;100856.19;5110820;28;20249;-62
2022/11/12 10:53:32;;;;;;;2.60;1.87;;;;;;;13.74;82.25;100864.78;5110551;28;20972;-58
2022/11/12 10:56:02;;;;;;;1.50;1.40;;;;;;;13.94;82.96;100849.97;5110085;27;20224;-58
2022/11/12 10:58:29;;;;;;;2.60;1.57;;;;;;;13.80;82.10;100853.31;5110965;28;20197;-59
2022/11/12 11:01:01;;;;;;;2.00;1.87;;;;;;;13.40;84.22;100854.75;5109629;28;20219;-62
2022/11/12 11:03:31;;;;;;;4.17;2.50;;;;;;;13.79;86.66;100849.09;5110268;28;20201;-63
2022/11/12 11:06:00;;;;;;;3.60;2.30;;;;;;;13.88;82.91;100858.03;5110756;28;20237;-62
2022/11/12 11:08:42;;;;;;;2.03;1.83;;;;;;;13.92;83.40;100852.59;5109868;28;20678;-61
2022/11/12 11:11:22;;;;;;;17.10;7.20;;;;;;;14.08;84.15;100847.41;5110674;28;20202;-64
2022/11/12 11:13:51;;;;;;;3.37;2.83;;;;;;;14.26;82.18;100845.50;5110030;28;20210;-64
2022/11/12 11:16:19;;;;;;;3.53;1.90;;;;;;;14.68;80.60;100849.81;5110454;28;20200;-64
2022/11/12 11:18:51;;;;;;;3.13;2.23;;;;;;;15.20;79.02;100842.34;5110395;28;20200;-64
2022/11/12 11:21:40;;;;;;;5.30;3.50;;;;;;;15.35;77.46;100844.78;5110605;28;20735;-59
2022/11/12 11:24:29;;;;;;;2.20;1.90;;;;;;;15.07;74.97;100839.75;5110738;28;20593;-59
2022/11/12 11:27:03;;;;;;;2.50;1.70;;;;;;;14.71;76.43;100847.06;5110300;28;20201;-64
2022/11/12 11:29:44;;;;;;;1.63;1.43;;;;;;;14.50;76.70;100848.34;5110411;28;20708;-64
2022/11/12 11:32:29;;;;;;;2.30;1.80;;;;;;;14.54;77.40;100847.25;5108307;28;20262;-64
2022/11/12 11:35:09;;;;;;;2.70;1.77;;;;;;;14.56;78.45;100847.19;5109033;28;20221;-64
2022/11/12 11:37:45;;;;;;;1.83;1.50;;;;;;;14.27;78.66;100847.16;5110369;28;20367;-59
2022/11/12 11:40:24;;;;;;;3.10;2.17;;;;;;;14.10;80.31;100848.13;5110350;28;20314;-59
2022/11/12 11:43:15;;;;;;;2.40;1.40;;;;;;;13.78;79.77;100850.81;5110001;28;20282;-64
2022/11/12 11:45:59;;;;;;;1.57;1.37;;;;;;;13.73;83.09;100852.00;5108493;28;20263;-60
2022/11/12 11:48:36;;;;;;;2.23;1.97;;;;;;;13.62;82.25;100850.06;5109961;28;20702;-59
2022/11/12 11:51:18;;;;;;;4.57;2.63;;;;;;;13.59;82.12;100851.06;5109596;28;20215;-64
2022/11/12 11:53:56;;;;;;;2.13;1.50;;;;;;;13.60;82.79;100857.03;5109919;28;20218;-59
2022/11/12 11:56:27;;;;;;;2.60;1.57;;;;;;;13.29;82.56;100853.63;5109926;28;20205;-64